sensor_id;sensor_type;location;lat;lon;timestamp;P1;durP1;ratioP1;P2;durP2;ratioP2
10847;SDS011;5477;48.806;9.154;2024-01-30T00:01:36;6.77;;;3.40;;
10847;SDS011;5477;48.806;9.154;2024-01-30T00:04:05;6.60;;;3.63;;
10847;SDS011;5477;48.806;9.154;2024-01-30T00:06:33;4.60;;;3.60;;
10847;SDS011;5477;48.806;9.154;2024-01-30T00:09:01;5.07;;;3.57;;
10847;SDS011;5477;48.806;9.154;2024-01-30T00:11:30;6.33;;;3.90;;
10847;SDS011;5477;48.806;9.154;2024-01-30T00:13:58;8.47;;;3.30;;
10847;SDS011;5477;48.806;9.154;2024-01-30T00:16:26;4.93;;;3.43;;
10847;SDS011;5477;48.806;9.154;2024-01-30T00:18:55;5.80;;;3.40;;
10847;SDS011;5477;48.806;9.154;2024-01-30T00:21:23;8.47;;;3.63;;
10847;SDS011;5477;48.806;9.154;2024-01-30T00:23:51;4.93;;;3.50;;
10847;SDS011;5477;48.806;9.154;2024-01-30T00:26:19;5.53;;;3.40;;
10847;SDS011;5477;48.806;9.154;2024-01-30T00:28:48;4.80;;;3.60;;
10847;SDS011;5477;48.806;9.154;2024-01-30T00:31:16;5.83;;;4.00;;
10847;SDS011;5477;48.806;9.154;2024-01-30T00:33:44;7.27;;;5.40;;
10847;SDS011;5477;48.806;9.154;2024-01-30T00:36:13;4.97;;;3.90;;
10847;SDS011;5477;48.806;9.154;2024-01-30T00:38:41;5.67;;;3.60;;
10847;SDS011;5477;48.806;9.154;2024-01-30T00:41:09;5.73;;;3.50;;
10847;SDS011;5477;48.806;9.154;2024-01-30T00:43:37;6.17;;;3.87;;
10847;SDS011;5477;48.806;9.154;2024-01-30T00:46:06;4.43;;;3.50;;
10847;SDS011;5477;48.806;9.154;2024-01-30T00:48:34;5.63;;;3.23;;
10847;SDS011;5477;48.806;9.154;2024-01-30T00:51:02;4.67;;;3.33;;
10847;SDS011;5477;48.806;9.154;2024-01-30T00:53:31;6.10;;;4.00;;
10847;SDS011;5477;48.806;9.154;2024-01-30T00:55:59;5.03;;;3.60;;
10847;SDS011;5477;48.806;9.154;2024-01-30T00:58:27;3.30;;;3.00;;
10847;SDS011;5477;48.806;9.154;2024-01-30T01:00:55;4.73;;;3.30;;
10847;SDS011;5477;48.806;9.154;2024-01-30T01:03:25;4.87;;;4.20;;
10847;SDS011;5477;48.806;9.154;2024-01-30T01:05:53;5.43;;;4.20;;
10847;SDS011;5477;48.806;9.154;2024-01-30T01:08:21;6.43;;;3.70;;
10847;SDS011;5477;48.806;9.154;2024-01-30T01:10:49;5.80;;;4.20;;
10847;SDS011;5477;48.806;9.154;2024-01-30T01:13:17;4.33;;;3.50;;
10847;SDS011;5477;48.806;9.154;2024-01-30T01:15:45;6.03;;;3.73;;
10847;SDS011;5477;48.806;9.154;2024-01-30T01:18:13;5.60;;;3.80;;
10847;SDS011;5477;48.806;9.154;2024-01-30T01:20:43;4.47;;;3.40;;
10847;SDS011;5477;48.806;9.154;2024-01-30T01:23:11;5.80;;;3.57;;
10847;SDS011;5477;48.806;9.154;2024-01-30T01:25:39;5.30;;;3.73;;
10847;SDS011;5477;48.806;9.154;2024-01-30T01:28:07;4.87;;;3.50;;
10847;SDS011;5477;48.806;9.154;2024-01-30T01:30:35;6.17;;;4.10;;
10847;SDS011;5477;48.806;9.154;2024-01-30T01:33:03;4.37;;;3.40;;
10847;SDS011;5477;48.806;9.154;2024-01-30T01:35:33;5.10;;;3.53;;
10847;SDS011;5477;48.806;9.154;2024-01-30T01:38:02;4.40;;;3.53;;
10847;SDS011;5477;48.806;9.154;2024-01-30T01:40:31;3.97;;;3.40;;
10847;SDS011;5477;48.806;9.154;2024-01-30T01:43:02;4.60;;;3.37;;
10847;SDS011;5477;48.806;9.154;2024-01-30T01:45:31;6.33;;;3.50;;
10847;SDS011;5477;48.806;9.154;2024-01-30T01:47:59;6.37;;;3.63;;
10847;SDS011;5477;48.806;9.154;2024-01-30T01:50:28;5.47;;;3.50;;
10847;SDS011;5477;48.806;9.154;2024-01-30T01:52:56;6.40;;;4.57;;
10847;SDS011;5477;48.806;9.154;2024-01-30T01:55:26;5.67;;;4.17;;
10847;SDS011;5477;48.806;9.154;2024-01-30T01:57:56;4.47;;;3.57;;
10847;SDS011;5477;48.806;9.154;2024-01-30T02:00:24;4.97;;;3.23;;
10847;SDS011;5477;48.806;9.154;2024-01-30T02:02:53;6.30;;;3.30;;
10847;SDS011;5477;48.806;9.154;2024-01-30T02:05:22;5.07;;;3.60;;
10847;SDS011;5477;48.806;9.154;2024-01-30T02:07:51;5.17;;;3.40;;
10847;SDS011;5477;48.806;9.154;2024-01-30T02:10:20;4.67;;;3.33;;
10847;SDS011;5477;48.806;9.154;2024-01-30T02:12:49;6.17;;;3.60;;
10847;SDS011;5477;48.806;9.154;2024-01-30T02:15:18;6.90;;;4.23;;
10847;SDS011;5477;48.806;9.154;2024-01-30T02:17:46;5.17;;;3.83;;
10847;SDS011;5477;48.806;9.154;2024-01-30T02:20:14;5.17;;;3.77;;
10847;SDS011;5477;48.806;9.154;2024-01-30T02:22:44;5.77;;;3.80;;
10847;SDS011;5477;48.806;9.154;2024-01-30T02:25:13;5.60;;;3.67;;
10847;SDS011;5477;48.806;9.154;2024-01-30T02:27:41;4.80;;;3.60;;
10847;SDS011;5477;48.806;9.154;2024-01-30T02:30:10;4.37;;;3.33;;
10847;SDS011;5477;48.806;9.154;2024-01-30T02:32:38;5.73;;;3.60;;
10847;SDS011;5477;48.806;9.154;2024-01-30T02:35:06;5.13;;;3.57;;
10847;SDS011;5477;48.806;9.154;2024-01-30T02:37:35;6.77;;;3.90;;
10847;SDS011;5477;48.806;9.154;2024-01-30T02:40:05;4.60;;;3.40;;
10847;SDS011;5477;48.806;9.154;2024-01-30T02:42:34;4.07;;;3.43;;
10847;SDS011;5477;48.806;9.154;2024-01-30T02:45:02;4.50;;;3.40;;
10847;SDS011;5477;48.806;9.154;2024-01-30T02:47:31;5.57;;;3.50;;
10847;SDS011;5477;48.806;9.154;2024-01-30T02:49:59;5.13;;;3.57;;
10847;SDS011;5477;48.806;9.154;2024-01-30T02:52:27;5.40;;;3.33;;
10847;SDS011;5477;48.806;9.154;2024-01-30T02:54:55;5.03;;;3.43;;
10847;SDS011;5477;48.806;9.154;2024-01-30T02:57:24;4.53;;;3.50;;
10847;SDS011;5477;48.806;9.154;2024-01-30T02:59:53;3.53;;;3.23;;
10847;SDS011;5477;48.806;9.154;2024-01-30T03:02:21;4.37;;;3.50;;
10847;SDS011;5477;48.806;9.154;2024-01-30T03:04:49;4.63;;;3.53;;
10847;SDS011;5477;48.806;9.154;2024-01-30T03:07:17;6.07;;;4.20;;
10847;SDS011;5477;48.806;9.154;2024-01-30T03:09:45;5.23;;;3.60;;
10847;SDS011;5477;48.806;9.154;2024-01-30T03:12:13;3.77;;;3.20;;
10847;SDS011;5477;48.806;9.154;2024-01-30T03:14:42;4.67;;;3.57;;
10847;SDS011;5477;48.806;9.154;2024-01-30T03:17:10;3.43;;;3.13;;
10847;SDS011;5477;48.806;9.154;2024-01-30T03:19:38;5.57;;;3.67;;
10847;SDS011;5477;48.806;9.154;2024-01-30T03:22:07;3.83;;;3.03;;
10847;SDS011;5477;48.806;9.154;2024-01-30T03:24:35;4.07;;;3.67;;
10847;SDS011;5477;48.806;9.154;2024-01-30T03:27:03;4.63;;;3.37;;
10847;SDS011;5477;48.806;9.154;2024-01-30T03:29:31;4.43;;;3.40;;
10847;SDS011;5477;48.806;9.154;2024-01-30T03:32:00;5.07;;;3.37;;
10847;SDS011;5477;48.806;9.154;2024-01-30T03:34:30;5.80;;;3.80;;
10847;SDS011;5477;48.806;9.154;2024-01-30T03:36:58;6.30;;;3.77;;
10847;SDS011;5477;48.806;9.154;2024-01-30T03:39:26;4.63;;;3.40;;
10847;SDS011;5477;48.806;9.154;2024-01-30T03:41:54;4.23;;;3.40;;
10847;SDS011;5477;48.806;9.154;2024-01-30T03:44:22;5.40;;;3.40;;
10847;SDS011;5477;48.806;9.154;2024-01-30T03:46:50;4.87;;;3.50;;
10847;SDS011;5477;48.806;9.154;2024-01-30T03:49:20;4.07;;;3.40;;
10847;SDS011;5477;48.806;9.154;2024-01-30T03:51:48;5.03;;;3.60;;
10847;SDS011;5477;48.806;9.154;2024-01-30T03:54:16;5.67;;;3.90;;
10847;SDS011;5477;48.806;9.154;2024-01-30T03:56:44;4.53;;;3.33;;
10847;SDS011;5477;48.806;9.154;2024-01-30T03:59:12;4.20;;;3.33;;
10847;SDS011;5477;48.806;9.154;2024-01-30T04:01:40;5.43;;;3.50;;
10847;SDS011;5477;48.806;9.154;2024-01-30T04:04:08;4.37;;;3.00;;
10847;SDS011;5477;48.806;9.154;2024-01-30T04:06:38;5.67;;;3.67;;
10847;SDS011;5477;48.806;9.154;2024-01-30T04:09:06;4.43;;;3.17;;
10847;SDS011;5477;48.806;9.154;2024-01-30T04:11:35;3.97;;;3.30;;
10847;SDS011;5477;48.806;9.154;2024-01-30T04:14:02;4.33;;;3.20;;
10847;SDS011;5477;48.806;9.154;2024-01-30T04:16:30;6.03;;;3.43;;
10847;SDS011;5477;48.806;9.154;2024-01-30T04:18:58;5.70;;;3.50;;
10847;SDS011;5477;48.806;9.154;2024-01-30T04:21:27;4.73;;;3.70;;
10847;SDS011;5477;48.806;9.154;2024-01-30T04:23:56;5.20;;;3.47;;
10847;SDS011;5477;48.806;9.154;2024-01-30T04:26:26;5.50;;;3.43;;
10847;SDS011;5477;48.806;9.154;2024-01-30T04:28:54;4.47;;;3.27;;
10847;SDS011;5477;48.806;9.154;2024-01-30T04:31:22;5.40;;;3.47;;
10847;SDS011;5477;48.806;9.154;2024-01-30T04:33:50;7.17;;;3.43;;
10847;SDS011;5477;48.806;9.154;2024-01-30T04:36:18;5.63;;;3.80;;
10847;SDS011;5477;48.806;9.154;2024-01-30T04:38:46;4.57;;;3.23;;
10847;SDS011;5477;48.806;9.154;2024-01-30T04:41:15;5.73;;;3.63;;
10847;SDS011;5477;48.806;9.154;2024-01-30T04:43:43;6.70;;;3.60;;
10847;SDS011;5477;48.806;9.154;2024-01-30T04:46:12;5.57;;;3.27;;
10847;SDS011;5477;48.806;9.154;2024-01-30T04:48:40;3.77;;;3.30;;
10847;SDS011;5477;48.806;9.154;2024-01-30T04:51:08;6.07;;;3.03;;
10847;SDS011;5477;48.806;9.154;2024-01-30T04:53:37;4.30;;;2.97;;
10847;SDS011;5477;48.806;9.154;2024-01-30T04:56:06;3.87;;;3.17;;
10847;SDS011;5477;48.806;9.154;2024-01-30T04:58:35;4.10;;;2.73;;
10847;SDS011;5477;48.806;9.154;2024-01-30T05:01:03;5.07;;;3.23;;
10847;SDS011;5477;48.806;9.154;2024-01-30T05:03:32;5.03;;;2.90;;
10847;SDS011;5477;48.806;9.154;2024-01-30T05:06:01;3.97;;;2.77;;
10847;SDS011;5477;48.806;9.154;2024-01-30T05:08:29;4.10;;;3.10;;
10847;SDS011;5477;48.806;9.154;2024-01-30T05:10:59;5.40;;;3.30;;
10847;SDS011;5477;48.806;9.154;2024-01-30T05:13:30;4.13;;;3.07;;
10847;SDS011;5477;48.806;9.154;2024-01-30T05:15:59;5.30;;;3.47;;
10847;SDS011;5477;48.806;9.154;2024-01-30T05:18:29;3.50;;;2.80;;
10847;SDS011;5477;48.806;9.154;2024-01-30T05:20:57;4.67;;;2.93;;
10847;SDS011;5477;48.806;9.154;2024-01-30T05:23:26;3.40;;;3.03;;
10847;SDS011;5477;48.806;9.154;2024-01-30T05:25:54;6.27;;;2.97;;
10847;SDS011;5477;48.806;9.154;2024-01-30T05:28:22;4.00;;;3.17;;
10847;SDS011;5477;48.806;9.154;2024-01-30T05:30:50;3.87;;;3.00;;
10847;SDS011;5477;48.806;9.154;2024-01-30T05:33:19;3.40;;;2.77;;
10847;SDS011;5477;48.806;9.154;2024-01-30T05:35:47;4.60;;;3.10;;
10847;SDS011;5477;48.806;9.154;2024-01-30T05:38:15;3.73;;;3.10;;
10847;SDS011;5477;48.806;9.154;2024-01-30T05:40:44;6.23;;;3.80;;
10847;SDS011;5477;48.806;9.154;2024-01-30T05:43:12;4.27;;;3.23;;
10847;SDS011;5477;48.806;9.154;2024-01-30T05:45:40;4.47;;;2.90;;
10847;SDS011;5477;48.806;9.154;2024-01-30T05:48:08;4.37;;;3.00;;
10847;SDS011;5477;48.806;9.154;2024-01-30T05:50:38;4.83;;;3.37;;
10847;SDS011;5477;48.806;9.154;2024-01-30T05:53:07;4.30;;;3.30;;
10847;SDS011;5477;48.806;9.154;2024-01-30T05:55:35;3.90;;;3.13;;
10847;SDS011;5477;48.806;9.154;2024-01-30T05:58:03;3.90;;;2.83;;
10847;SDS011;5477;48.806;9.154;2024-01-30T06:00:32;13.17;;;6.30;;
10847;SDS011;5477;48.806;9.154;2024-01-30T06:03:00;4.93;;;3.63;;
10847;SDS011;5477;48.806;9.154;2024-01-30T06:05:28;4.77;;;3.50;;
10847;SDS011;5477;48.806;9.154;2024-01-30T06:07:57;7.20;;;3.97;;
10847;SDS011;5477;48.806;9.154;2024-01-30T06:10:25;6.37;;;4.23;;
10847;SDS011;5477;48.806;9.154;2024-01-30T06:12:53;5.27;;;3.77;;
10847;SDS011;5477;48.806;9.154;2024-01-30T06:15:21;6.53;;;4.47;;
10847;SDS011;5477;48.806;9.154;2024-01-30T06:17:49;6.47;;;5.70;;
10847;SDS011;5477;48.806;9.154;2024-01-30T06:20:17;6.33;;;4.27;;
10847;SDS011;5477;48.806;9.154;2024-01-30T06:22:46;6.70;;;4.67;;
10847;SDS011;5477;48.806;9.154;2024-01-30T06:25:15;6.93;;;5.37;;
10847;SDS011;5477;48.806;9.154;2024-01-30T06:27:44;7.17;;;4.47;;
10847;SDS011;5477;48.806;9.154;2024-01-30T06:30:12;9.13;;;4.70;;
10847;SDS011;5477;48.806;9.154;2024-01-30T06:32:40;3.17;;;2.87;;
10847;SDS011;5477;48.806;9.154;2024-01-30T06:35:08;6.63;;;3.57;;
10847;SDS011;5477;48.806;9.154;2024-01-30T06:37:37;9.63;;;3.60;;
10847;SDS011;5477;48.806;9.154;2024-01-30T06:40:06;4.43;;;3.40;;
10847;SDS011;5477;48.806;9.154;2024-01-30T06:42:36;8.43;;;3.57;;
10847;SDS011;5477;48.806;9.154;2024-01-30T06:45:05;8.90;;;4.30;;
10847;SDS011;5477;48.806;9.154;2024-01-30T06:47:34;6.40;;;3.70;;
10847;SDS011;5477;48.806;9.154;2024-01-30T06:50:02;5.10;;;4.10;;
10847;SDS011;5477;48.806;9.154;2024-01-30T06:52:30;6.40;;;3.50;;
10847;SDS011;5477;48.806;9.154;2024-01-30T06:54:58;4.93;;;3.60;;
10847;SDS011;5477;48.806;9.154;2024-01-30T06:57:26;6.47;;;3.63;;
10847;SDS011;5477;48.806;9.154;2024-01-30T06:59:58;6.57;;;3.73;;
10847;SDS011;5477;48.806;9.154;2024-01-30T07:02:26;6.77;;;3.73;;
10847;SDS011;5477;48.806;9.154;2024-01-30T07:04:54;5.27;;;4.07;;
10847;SDS011;5477;48.806;9.154;2024-01-30T07:07:22;5.57;;;4.20;;
10847;SDS011;5477;48.806;9.154;2024-01-30T07:09:51;9.13;;;4.13;;
10847;SDS011;5477;48.806;9.154;2024-01-30T07:12:23;5.90;;;4.80;;
10847;SDS011;5477;48.806;9.154;2024-01-30T07:14:52;6.50;;;4.17;;
10847;SDS011;5477;48.806;9.154;2024-01-30T07:17:23;7.27;;;5.00;;
10847;SDS011;5477;48.806;9.154;2024-01-30T07:19:51;10.30;;;5.53;;
10847;SDS011;5477;48.806;9.154;2024-01-30T07:22:19;8.27;;;4.67;;
10847;SDS011;5477;48.806;9.154;2024-01-30T07:24:47;7.43;;;4.23;;
10847;SDS011;5477;48.806;9.154;2024-01-30T07:27:16;5.17;;;3.77;;
10847;SDS011;5477;48.806;9.154;2024-01-30T07:29:44;8.23;;;4.50;;
10847;SDS011;5477;48.806;9.154;2024-01-30T07:32:12;5.83;;;4.33;;
10847;SDS011;5477;48.806;9.154;2024-01-30T07:34:42;7.30;;;4.10;;
10847;SDS011;5477;48.806;9.154;2024-01-30T07:37:28;4.67;;;3.80;;
10847;SDS011;5477;48.806;9.154;2024-01-30T07:39:56;5.93;;;3.87;;
10847;SDS011;5477;48.806;9.154;2024-01-30T07:42:24;4.23;;;3.37;;
10847;SDS011;5477;48.806;9.154;2024-01-30T07:44:52;5.67;;;3.37;;
10847;SDS011;5477;48.806;9.154;2024-01-30T07:47:20;7.73;;;3.60;;
10847;SDS011;5477;48.806;9.154;2024-01-30T07:49:50;6.40;;;4.00;;
10847;SDS011;5477;48.806;9.154;2024-01-30T07:52:19;5.80;;;3.70;;
10847;SDS011;5477;48.806;9.154;2024-01-30T07:54:50;5.37;;;4.27;;
10847;SDS011;5477;48.806;9.154;2024-01-30T07:57:19;8.50;;;4.20;;
10847;SDS011;5477;48.806;9.154;2024-01-30T07:59:47;4.80;;;3.40;;
10847;SDS011;5477;48.806;9.154;2024-01-30T08:02:15;5.50;;;3.57;;
10847;SDS011;5477;48.806;9.154;2024-01-30T08:04:43;4.27;;;3.33;;
10847;SDS011;5477;48.806;9.154;2024-01-30T08:07:16;4.67;;;3.70;;
10847;SDS011;5477;48.806;9.154;2024-01-30T08:09:44;5.70;;;4.00;;
10847;SDS011;5477;48.806;9.154;2024-01-30T08:12:12;4.60;;;3.57;;
10847;SDS011;5477;48.806;9.154;2024-01-30T08:14:40;7.23;;;4.33;;
10847;SDS011;5477;48.806;9.154;2024-01-30T08:17:08;7.87;;;4.20;;
10847;SDS011;5477;48.806;9.154;2024-01-30T08:19:36;6.50;;;4.10;;
10847;SDS011;5477;48.806;9.154;2024-01-30T08:22:04;4.60;;;3.50;;
10847;SDS011;5477;48.806;9.154;2024-01-30T08:24:34;5.53;;;3.87;;
10847;SDS011;5477;48.806;9.154;2024-01-30T08:27:02;6.70;;;4.10;;
10847;SDS011;5477;48.806;9.154;2024-01-30T08:29:31;4.57;;;3.63;;
10847;SDS011;5477;48.806;9.154;2024-01-30T08:31:59;5.70;;;4.30;;
10847;SDS011;5477;48.806;9.154;2024-01-30T08:34:27;6.77;;;3.50;;
10847;SDS011;5477;48.806;9.154;2024-01-30T08:36:55;3.97;;;3.17;;
10847;SDS011;5477;48.806;9.154;2024-01-30T08:39:23;6.03;;;3.90;;
10847;SDS011;5477;48.806;9.154;2024-01-30T08:41:53;6.23;;;4.33;;
10847;SDS011;5477;48.806;9.154;2024-01-30T08:44:21;10.97;;;5.90;;
10847;SDS011;5477;48.806;9.154;2024-01-30T08:46:49;7.37;;;4.80;;
10847;SDS011;5477;48.806;9.154;2024-01-30T08:49:17;8.43;;;5.97;;
10847;SDS011;5477;48.806;9.154;2024-01-30T08:51:45;12.10;;;7.70;;
10847;SDS011;5477;48.806;9.154;2024-01-30T08:54:13;11.63;;;8.37;;
10847;SDS011;5477;48.806;9.154;2024-01-30T08:56:41;12.93;;;7.80;;
10847;SDS011;5477;48.806;9.154;2024-01-30T08:59:11;11.57;;;5.80;;
10847;SDS011;5477;48.806;9.154;2024-01-30T09:01:39;9.27;;;6.50;;
10847;SDS011;5477;48.806;9.154;2024-01-30T09:04:21;12.77;;;7.17;;
10847;SDS011;5477;48.806;9.154;2024-01-30T09:06:51;16.07;;;8.37;;
10847;SDS011;5477;48.806;9.154;2024-01-30T09:09:20;10.67;;;7.97;;
10847;SDS011;5477;48.806;9.154;2024-01-30T09:11:48;9.60;;;6.93;;
10847;SDS011;5477;48.806;9.154;2024-01-30T09:14:17;11.10;;;7.37;;
10847;SDS011;5477;48.806;9.154;2024-01-30T09:16:45;10.13;;;6.90;;
10847;SDS011;5477;48.806;9.154;2024-01-30T09:19:15;11.13;;;7.87;;
10847;SDS011;5477;48.806;9.154;2024-01-30T09:21:43;13.83;;;7.90;;
10847;SDS011;5477;48.806;9.154;2024-01-30T09:24:11;13.70;;;7.50;;
10847;SDS011;5477;48.806;9.154;2024-01-30T09:26:39;12.13;;;7.63;;
10847;SDS011;5477;48.806;9.154;2024-01-30T09:29:09;14.33;;;8.07;;
10847;SDS011;5477;48.806;9.154;2024-01-30T09:31:40;8.77;;;7.10;;
10847;SDS011;5477;48.806;9.154;2024-01-30T09:34:10;11.43;;;9.23;;
10847;SDS011;5477;48.806;9.154;2024-01-30T09:36:39;12.33;;;8.87;;
10847;SDS011;5477;48.806;9.154;2024-01-30T09:39:07;12.10;;;7.17;;
10847;SDS011;5477;48.806;9.154;2024-01-30T09:41:36;10.83;;;7.00;;
10847;SDS011;5477;48.806;9.154;2024-01-30T09:44:15;14.63;;;7.20;;
10847;SDS011;5477;48.806;9.154;2024-01-30T09:46:45;13.07;;;8.20;;
10847;SDS011;5477;48.806;9.154;2024-01-30T09:49:15;14.63;;;7.23;;
10847;SDS011;5477;48.806;9.154;2024-01-30T09:51:47;11.03;;;7.23;;
10847;SDS011;5477;48.806;9.154;2024-01-30T09:54:18;12.70;;;7.27;;
10847;SDS011;5477;48.806;9.154;2024-01-30T09:56:47;11.33;;;7.40;;
10847;SDS011;5477;48.806;9.154;2024-01-30T09:59:15;8.93;;;7.00;;
10847;SDS011;5477;48.806;9.154;2024-01-30T10:01:43;12.57;;;7.07;;
10847;SDS011;5477;48.806;9.154;2024-01-30T10:04:13;12.87;;;7.23;;
10847;SDS011;5477;48.806;9.154;2024-01-30T10:06:41;11.37;;;7.40;;
10847;SDS011;5477;48.806;9.154;2024-01-30T10:09:10;9.47;;;7.20;;
10847;SDS011;5477;48.806;9.154;2024-01-30T10:11:38;10.03;;;7.00;;
10847;SDS011;5477;48.806;9.154;2024-01-30T10:14:06;13.83;;;7.60;;
10847;SDS011;5477;48.806;9.154;2024-01-30T10:16:34;13.07;;;6.93;;
10847;SDS011;5477;48.806;9.154;2024-01-30T10:19:03;9.53;;;7.10;;
10847;SDS011;5477;48.806;9.154;2024-01-30T10:21:32;11.33;;;7.07;;
10847;SDS011;5477;48.806;9.154;2024-01-30T10:24:00;11.50;;;7.37;;
10847;SDS011;5477;48.806;9.154;2024-01-30T10:26:28;11.63;;;7.83;;
10847;SDS011;5477;48.806;9.154;2024-01-30T10:28:59;15.23;;;7.37;;
10847;SDS011;5477;48.806;9.154;2024-01-30T10:31:27;14.07;;;7.53;;
10847;SDS011;5477;48.806;9.154;2024-01-30T10:33:56;16.50;;;9.70;;
10847;SDS011;5477;48.806;9.154;2024-01-30T10:36:43;11.10;;;7.60;;
10847;SDS011;5477;48.806;9.154;2024-01-30T10:39:17;12.07;;;7.80;;
10847;SDS011;5477;48.806;9.154;2024-01-30T10:41:47;17.47;;;8.63;;
10847;SDS011;5477;48.806;9.154;2024-01-30T10:44:18;12.17;;;8.20;;
10847;SDS011;5477;48.806;9.154;2024-01-30T10:46:51;16.07;;;7.60;;
10847;SDS011;5477;48.806;9.154;2024-01-30T10:49:27;14.80;;;8.10;;
10847;SDS011;5477;48.806;9.154;2024-01-30T10:51:58;14.80;;;8.97;;
10847;SDS011;5477;48.806;9.154;2024-01-30T10:54:27;11.17;;;8.23;;
10847;SDS011;5477;48.806;9.154;2024-01-30T10:56:58;14.17;;;8.57;;
10847;SDS011;5477;48.806;9.154;2024-01-30T10:59:30;15.03;;;8.37;;
10847;SDS011;5477;48.806;9.154;2024-01-30T11:01:59;19.33;;;9.53;;
10847;SDS011;5477;48.806;9.154;2024-01-30T11:04:35;15.77;;;8.87;;
10847;SDS011;5477;48.806;9.154;2024-01-30T11:07:15;13.87;;;8.40;;
10847;SDS011;5477;48.806;9.154;2024-01-30T11:09:49;12.10;;;8.30;;
10847;SDS011;5477;48.806;9.154;2024-01-30T11:12:21;16.73;;;8.23;;
10847;SDS011;5477;48.806;9.154;2024-01-30T11:14:50;15.73;;;8.17;;
10847;SDS011;5477;48.806;9.154;2024-01-30T11:20:19;14.90;;;9.53;;
10847;SDS011;5477;48.806;9.154;2024-01-30T11:22:50;14.87;;;8.37;;
10847;SDS011;5477;48.806;9.154;2024-01-30T11:25:20;14.17;;;9.50;;
10847;SDS011;5477;48.806;9.154;2024-01-30T11:27:50;13.67;;;8.47;;
10847;SDS011;5477;48.806;9.154;2024-01-30T11:30:23;18.53;;;8.40;;
10847;SDS011;5477;48.806;9.154;2024-01-30T11:33:01;17.73;;;7.87;;
10847;SDS011;5477;48.806;9.154;2024-01-30T11:35:32;11.70;;;8.73;;
10847;SDS011;5477;48.806;9.154;2024-01-30T11:38:03;12.97;;;8.27;;
10847;SDS011;5477;48.806;9.154;2024-01-30T11:40:33;11.73;;;8.10;;
10847;SDS011;5477;48.806;9.154;2024-01-30T11:43:03;13.20;;;8.07;;
10847;SDS011;5477;48.806;9.154;2024-01-30T11:45:33;15.47;;;8.93;;
10847;SDS011;5477;48.806;9.154;2024-01-30T11:48:01;10.77;;;8.00;;
10847;SDS011;5477;48.806;9.154;2024-01-30T11:50:32;11.93;;;8.40;;
10847;SDS011;5477;48.806;9.154;2024-01-30T11:53:02;18.50;;;9.30;;
10847;SDS011;5477;48.806;9.154;2024-01-30T11:55:33;15.53;;;9.00;;
10847;SDS011;5477;48.806;9.154;2024-01-30T11:58:02;12.90;;;8.43;;
10847;SDS011;5477;48.806;9.154;2024-01-30T12:00:32;18.33;;;9.00;;
10847;SDS011;5477;48.806;9.154;2024-01-30T12:03:01;12.73;;;7.80;;
10847;SDS011;5477;48.806;9.154;2024-01-30T12:05:30;13.97;;;8.00;;
10847;SDS011;5477;48.806;9.154;2024-01-30T12:07:58;16.00;;;8.23;;
10847;SDS011;5477;48.806;9.154;2024-01-30T12:10:29;10.03;;;8.00;;
10847;SDS011;5477;48.806;9.154;2024-01-30T12:12:58;12.80;;;8.97;;
10847;SDS011;5477;48.806;9.154;2024-01-30T12:15:26;20.83;;;12.50;;
10847;SDS011;5477;48.806;9.154;2024-01-30T12:18:03;21.10;;;11.10;;
10847;SDS011;5477;48.806;9.154;2024-01-30T12:20:32;18.23;;;9.20;;
10847;SDS011;5477;48.806;9.154;2024-01-30T12:23:00;12.37;;;9.03;;
10847;SDS011;5477;48.806;9.154;2024-01-30T12:25:30;18.03;;;9.50;;
10847;SDS011;5477;48.806;9.154;2024-01-30T12:27:58;22.60;;;10.50;;
10847;SDS011;5477;48.806;9.154;2024-01-30T12:30:27;16.40;;;9.40;;
10847;SDS011;5477;48.806;9.154;2024-01-30T12:32:56;18.67;;;9.47;;
10847;SDS011;5477;48.806;9.154;2024-01-30T12:35:24;21.43;;;9.70;;
10847;SDS011;5477;48.806;9.154;2024-01-30T12:37:57;26.40;;;10.33;;
10847;SDS011;5477;48.806;9.154;2024-01-30T12:40:25;12.70;;;8.77;;
10847;SDS011;5477;48.806;9.154;2024-01-30T12:42:55;16.67;;;9.47;;
10847;SDS011;5477;48.806;9.154;2024-01-30T12:45:24;15.60;;;8.57;;
10847;SDS011;5477;48.806;9.154;2024-01-30T12:47:53;11.50;;;7.90;;
10847;SDS011;5477;48.806;9.154;2024-01-30T12:50:21;17.00;;;9.00;;
10847;SDS011;5477;48.806;9.154;2024-01-30T12:52:49;13.70;;;8.00;;
10847;SDS011;5477;48.806;9.154;2024-01-30T12:55:18;10.60;;;7.37;;
10847;SDS011;5477;48.806;9.154;2024-01-30T12:57:46;18.80;;;10.03;;
10847;SDS011;5477;48.806;9.154;2024-01-30T13:00:15;12.10;;;8.17;;
10847;SDS011;5477;48.806;9.154;2024-01-30T13:02:44;16.13;;;9.60;;
10847;SDS011;5477;48.806;9.154;2024-01-30T13:05:12;13.57;;;8.20;;
10847;SDS011;5477;48.806;9.154;2024-01-30T13:07:41;14.30;;;8.30;;
10847;SDS011;5477;48.806;9.154;2024-01-30T13:10:09;18.87;;;9.20;;
10847;SDS011;5477;48.806;9.154;2024-01-30T13:12:37;13.60;;;9.03;;
10847;SDS011;5477;48.806;9.154;2024-01-30T13:15:05;11.97;;;7.57;;
10847;SDS011;5477;48.806;9.154;2024-01-30T13:17:35;11.90;;;8.20;;
10847;SDS011;5477;48.806;9.154;2024-01-30T13:20:04;16.07;;;10.03;;
10847;SDS011;5477;48.806;9.154;2024-01-30T13:22:37;17.37;;;10.33;;
10847;SDS011;5477;48.806;9.154;2024-01-30T13:25:06;21.67;;;10.53;;
10847;SDS011;5477;48.806;9.154;2024-01-30T13:27:35;20.17;;;10.10;;
10847;SDS011;5477;48.806;9.154;2024-01-30T13:30:03;13.47;;;8.77;;
10847;SDS011;5477;48.806;9.154;2024-01-30T13:32:35;16.03;;;9.63;;
10847;SDS011;5477;48.806;9.154;2024-01-30T13:35:04;19.43;;;11.00;;
10847;SDS011;5477;48.806;9.154;2024-01-30T13:37:32;13.77;;;9.63;;
10847;SDS011;5477;48.806;9.154;2024-01-30T13:40:01;19.73;;;9.60;;
10847;SDS011;5477;48.806;9.154;2024-01-30T13:42:33;14.73;;;8.70;;
10847;SDS011;5477;48.806;9.154;2024-01-30T13:45:01;19.37;;;8.17;;
10847;SDS011;5477;48.806;9.154;2024-01-30T13:47:29;14.27;;;8.07;;
10847;SDS011;5477;48.806;9.154;2024-01-30T13:50:00;16.23;;;9.17;;
10847;SDS011;5477;48.806;9.154;2024-01-30T13:52:29;19.63;;;10.20;;
10847;SDS011;5477;48.806;9.154;2024-01-30T13:55:09;17.50;;;9.20;;
10847;SDS011;5477;48.806;9.154;2024-01-30T13:57:37;19.17;;;9.40;;
10847;SDS011;5477;48.806;9.154;2024-01-30T14:00:06;14.30;;;9.13;;
10847;SDS011;5477;48.806;9.154;2024-01-30T14:02:38;22.13;;;12.67;;
10847;SDS011;5477;48.806;9.154;2024-01-30T14:05:08;20.43;;;10.17;;
10847;SDS011;5477;48.806;9.154;2024-01-30T14:07:36;17.80;;;9.77;;
10847;SDS011;5477;48.806;9.154;2024-01-30T14:10:07;14.67;;;8.50;;
10847;SDS011;5477;48.806;9.154;2024-01-30T14:12:39;16.57;;;8.50;;
10847;SDS011;5477;48.806;9.154;2024-01-30T14:15:07;21.10;;;9.47;;
10847;SDS011;5477;48.806;9.154;2024-01-30T14:17:52;20.90;;;9.97;;
10847;SDS011;5477;48.806;9.154;2024-01-30T14:20:23;15.13;;;9.53;;
10847;SDS011;5477;48.806;9.154;2024-01-30T14:22:51;13.73;;;8.97;;
10847;SDS011;5477;48.806;9.154;2024-01-30T14:25:19;19.30;;;9.30;;
10847;SDS011;5477;48.806;9.154;2024-01-30T14:27:47;16.03;;;8.40;;
10847;SDS011;5477;48.806;9.154;2024-01-30T14:30:15;16.37;;;8.63;;
10847;SDS011;5477;48.806;9.154;2024-01-30T14:32:45;14.30;;;8.23;;
10847;SDS011;5477;48.806;9.154;2024-01-30T14:35:14;18.87;;;8.67;;
10847;SDS011;5477;48.806;9.154;2024-01-30T14:37:43;15.40;;;8.93;;
10847;SDS011;5477;48.806;9.154;2024-01-30T14:40:11;14.63;;;8.90;;
10847;SDS011;5477;48.806;9.154;2024-01-30T14:42:40;16.27;;;8.87;;
10847;SDS011;5477;48.806;9.154;2024-01-30T14:45:09;16.77;;;9.27;;
10847;SDS011;5477;48.806;9.154;2024-01-30T14:47:38;21.97;;;10.03;;
10847;SDS011;5477;48.806;9.154;2024-01-30T14:50:07;15.97;;;8.93;;
10847;SDS011;5477;48.806;9.154;2024-01-30T14:52:36;19.57;;;10.33;;
10847;SDS011;5477;48.806;9.154;2024-01-30T14:55:08;21.23;;;11.23;;
10847;SDS011;5477;48.806;9.154;2024-01-30T14:57:36;17.13;;;9.17;;
10847;SDS011;5477;48.806;9.154;2024-01-30T15:00:05;23.97;;;10.50;;
10847;SDS011;5477;48.806;9.154;2024-01-30T15:02:35;23.73;;;9.23;;
10847;SDS011;5477;48.806;9.154;2024-01-30T15:05:03;15.07;;;8.37;;
10847;SDS011;5477;48.806;9.154;2024-01-30T15:07:31;22.90;;;12.70;;
10847;SDS011;5477;48.806;9.154;2024-01-30T15:10:07;26.60;;;16.87;;